sensor_id;sensor_type;location;lat;lon;timestamp;P1;durP1;ratioP1;P2;durP2;ratioP2
41077;SDS011;26823;42.662;23.352;2024-03-08T00:02:14;10.27;;;6.70;;
41077;SDS011;26823;42.662;23.352;2024-03-08T00:04:39;11.63;;;7.53;;
41077;SDS011;26823;42.662;23.352;2024-03-08T00:07:05;10.73;;;6.85;;
41077;SDS011;26823;42.662;23.352;2024-03-08T00:09:31;12.13;;;7.28;;
41077;SDS011;26823;42.662;23.352;2024-03-08T00:11:57;10.20;;;6.55;;
41077;SDS011;26823;42.662;23.352;2024-03-08T00:14:23;9.90;;;6.47;;
41077;SDS011;26823;42.662;23.352;2024-03-08T00:16:48;12.02;;;6.82;;
41077;SDS011;26823;42.662;23.352;2024-03-08T00:19:14;10.98;;;7.35;;
41077;SDS011;26823;42.662;23.352;2024-03-08T00:21:39;8.80;;;6.22;;
41077;SDS011;26823;42.662;23.352;2024-03-08T00:24:05;10.90;;;6.45;;
41077;SDS011;26823;42.662;23.352;2024-03-08T00:26:31;12.02;;;6.20;;
41077;SDS011;26823;42.662;23.352;2024-03-08T00:28:56;8.88;;;5.93;;
41077;SDS011;26823;42.662;23.352;2024-03-08T00:31:22;9.25;;;6.15;;
41077;SDS011;26823;42.662;23.352;2024-03-08T00:33:47;10.98;;;5.93;;
41077;SDS011;26823;42.662;23.352;2024-03-08T00:36:12;8.98;;;6.03;;
41077;SDS011;26823;42.662;23.352;2024-03-08T00:38:38;8.52;;;6.25;;
41077;SDS011;26823;42.662;23.352;2024-03-08T00:41:03;9.32;;;6.03;;
41077;SDS011;26823;42.662;23.352;2024-03-08T00:43:29;8.75;;;5.70;;
41077;SDS011;26823;42.662;23.352;2024-03-08T00:45:55;7.25;;;4.93;;
41077;SDS011;26823;42.662;23.352;2024-03-08T00:48:22;7.85;;;5.40;;
41077;SDS011;26823;42.662;23.352;2024-03-08T00:50:48;8.55;;;5.38;;
41077;SDS011;26823;42.662;23.352;2024-03-08T00:53:13;7.78;;;5.05;;
41077;SDS011;26823;42.662;23.352;2024-03-08T00:55:39;6.38;;;4.57;;
41077;SDS011;26823;42.662;23.352;2024-03-08T00:58:04;6.57;;;4.40;;
41077;SDS011;26823;42.662;23.352;2024-03-08T01:00:30;6.97;;;4.90;;
41077;SDS011;26823;42.662;23.352;2024-03-08T01:02:56;6.35;;;4.18;;
41077;SDS011;26823;42.662;23.352;2024-03-08T01:05:21;3.85;;;2.92;;
41077;SDS011;26823;42.662;23.352;2024-03-08T01:07:49;3.40;;;2.70;;
41077;SDS011;26823;42.662;23.352;2024-03-08T01:10:15;4.25;;;2.20;;
41077;SDS011;26823;42.662;23.352;2024-03-08T01:12:40;3.60;;;2.72;;
41077;SDS011;26823;42.662;23.352;2024-03-08T01:15:08;3.22;;;2.38;;
41077;SDS011;26823;42.662;23.352;2024-03-08T01:17:38;3.88;;;2.28;;
41077;SDS011;26823;42.662;23.352;2024-03-08T01:20:12;3.10;;;2.42;;
41077;SDS011;26823;42.662;23.352;2024-03-08T01:22:38;2.75;;;2.22;;
41077;SDS011;26823;42.662;23.352;2024-03-08T01:25:04;2.33;;;2.03;;
41077;SDS011;26823;42.662;23.352;2024-03-08T01:27:30;2.15;;;1.77;;
41077;SDS011;26823;42.662;23.352;2024-03-08T01:29:56;3.95;;;1.92;;
41077;SDS011;26823;42.662;23.352;2024-03-08T01:32:21;2.55;;;2.05;;
41077;SDS011;26823;42.662;23.352;2024-03-08T01:34:48;3.50;;;2.15;;
41077;SDS011;26823;42.662;23.352;2024-03-08T01:37:14;2.10;;;1.90;;
41077;SDS011;26823;42.662;23.352;2024-03-08T01:39:39;3.15;;;2.13;;
41077;SDS011;26823;42.662;23.352;2024-03-08T01:42:05;2.80;;;2.08;;
41077;SDS011;26823;42.662;23.352;2024-03-08T01:44:30;2.40;;;2.00;;
41077;SDS011;26823;42.662;23.352;2024-03-08T01:46:56;3.53;;;2.40;;
41077;SDS011;26823;42.662;23.352;2024-03-08T01:49:22;2.90;;;2.30;;
41077;SDS011;26823;42.662;23.352;2024-03-08T01:51:50;2.45;;;2.05;;
41077;SDS011;26823;42.662;23.352;2024-03-08T01:54:16;3.33;;;2.58;;
41077;SDS011;26823;42.662;23.352;2024-03-08T01:56:43;4.20;;;2.58;;
41077;SDS011;26823;42.662;23.352;2024-03-08T01:59:09;2.92;;;2.30;;
41077;SDS011;26823;42.662;23.352;2024-03-08T02:01:35;3.55;;;2.35;;
41077;SDS011;26823;42.662;23.352;2024-03-08T02:04:00;2.50;;;2.30;;
41077;SDS011;26823;42.662;23.352;2024-03-08T02:06:26;2.55;;;2.10;;
41077;SDS011;26823;42.662;23.352;2024-03-08T02:08:51;2.40;;;1.90;;
41077;SDS011;26823;42.662;23.352;2024-03-08T02:11:18;2.22;;;1.85;;
41077;SDS011;26823;42.662;23.352;2024-03-08T02:13:45;2.90;;;2.13;;
41077;SDS011;26823;42.662;23.352;2024-03-08T02:16:11;4.75;;;1.90;;
41077;SDS011;26823;42.662;23.352;2024-03-08T02:18:37;2.40;;;1.80;;
41077;SDS011;26823;42.662;23.352;2024-03-08T02:21:05;3.55;;;2.00;;
41077;SDS011;26823;42.662;23.352;2024-03-08T02:23:31;1.92;;;1.65;;
41077;SDS011;26823;42.662;23.352;2024-03-08T02:25:57;2.38;;;1.98;;
41077;SDS011;26823;42.662;23.352;2024-03-08T02:28:24;2.00;;;1.90;;
41077;SDS011;26823;42.662;23.352;2024-03-08T02:30:54;1.90;;;1.70;;
41077;SDS011;26823;42.662;23.352;2024-03-08T02:33:22;1.92;;;1.70;;
41077;SDS011;26823;42.662;23.352;2024-03-08T02:35:48;2.42;;;2.05;;
41077;SDS011;26823;42.662;23.352;2024-03-08T02:38:16;2.05;;;1.80;;
41077;SDS011;26823;42.662;23.352;2024-03-08T02:40:46;2.67;;;2.33;;
41077;SDS011;26823;42.662;23.352;2024-03-08T02:43:13;2.15;;;1.88;;
41077;SDS011;26823;42.662;23.352;2024-03-08T02:45:39;2.40;;;2.20;;
41077;SDS011;26823;42.662;23.352;2024-03-08T02:48:07;2.85;;;1.83;;
41077;SDS011;26823;42.662;23.352;2024-03-08T02:50:33;2.28;;;2.03;;
41077;SDS011;26823;42.662;23.352;2024-03-08T02:53:00;2.20;;;1.83;;
41077;SDS011;26823;42.662;23.352;2024-03-08T02:55:26;2.20;;;2.00;;
41077;SDS011;26823;42.662;23.352;2024-03-08T02:57:51;2.83;;;1.88;;
41077;SDS011;26823;42.662;23.352;2024-03-08T03:00:19;2.05;;;1.85;;
41077;SDS011;26823;42.662;23.352;2024-03-08T03:02:46;2.15;;;1.90;;
41077;SDS011;26823;42.662;23.352;2024-03-08T03:05:12;2.53;;;2.28;;
41077;SDS011;26823;42.662;23.352;2024-03-08T03:07:38;7.57;;;4.72;;
41077;SDS011;26823;42.662;23.352;2024-03-08T03:10:04;3.42;;;2.70;;
41077;SDS011;26823;42.662;23.352;2024-03-08T03:12:30;1.40;;;1.30;;
41077;SDS011;26823;42.662;23.352;2024-03-08T03:14:56;2.15;;;1.60;;
41077;SDS011;26823;42.662;23.352;2024-03-08T03:17:23;1.55;;;1.30;;
41077;SDS011;26823;42.662;23.352;2024-03-08T03:19:51;1.25;;;0.95;;
41077;SDS011;26823;42.662;23.352;2024-03-08T03:22:20;1.50;;;1.40;;
41077;SDS011;26823;42.662;23.352;2024-03-08T03:24:45;1.20;;;1.10;;
41077;SDS011;26823;42.662;23.352;2024-03-08T03:27:16;0.70;;;0.70;;
41077;SDS011;26823;42.662;23.352;2024-03-08T03:29:43;1.02;;;0.95;;
41077;SDS011;26823;42.662;23.352;2024-03-08T03:32:12;0.80;;;0.80;;
41077;SDS011;26823;42.662;23.352;2024-03-08T03:34:38;1.45;;;1.00;;
41077;SDS011;26823;42.662;23.352;2024-03-08T03:37:09;2.83;;;1.20;;
41077;SDS011;26823;42.662;23.352;2024-03-08T03:39:38;1.35;;;1.05;;
41077;SDS011;26823;42.662;23.352;2024-03-08T03:42:18;1.27;;;1.05;;
41077;SDS011;26823;42.662;23.352;2024-03-08T03:44:47;0.90;;;0.90;;
41077;SDS011;26823;42.662;23.352;2024-03-08T03:47:14;0.82;;;0.82;;
41077;SDS011;26823;42.662;23.352;2024-03-08T03:49:40;1.00;;;0.90;;
41077;SDS011;26823;42.662;23.352;2024-03-08T03:52:06;2.13;;;1.40;;
41077;SDS011;26823;42.662;23.352;2024-03-08T03:54:32;1.40;;;1.20;;
41077;SDS011;26823;42.662;23.352;2024-03-08T03:56:58;1.10;;;0.90;;
41077;SDS011;26823;42.662;23.352;2024-03-08T03:59:25;1.27;;;0.90;;
41077;SDS011;26823;42.662;23.352;2024-03-08T04:01:50;1.35;;;1.25;;
41077;SDS011;26823;42.662;23.352;2024-03-08T04:04:16;1.20;;;1.10;;
41077;SDS011;26823;42.662;23.352;2024-03-08T04:06:41;3.08;;;1.75;;
41077;SDS011;26823;42.662;23.352;2024-03-08T04:09:07;6.97;;;3.05;;
41077;SDS011;26823;42.662;23.352;2024-03-08T04:11:32;1.60;;;1.30;;
41077;SDS011;26823;42.662;23.352;2024-03-08T04:13:58;1.70;;;1.38;;
41077;SDS011;26823;42.662;23.352;2024-03-08T04:16:24;2.78;;;1.40;;
41077;SDS011;26823;42.662;23.352;2024-03-08T04:18:51;1.38;;;1.27;;
41077;SDS011;26823;42.662;23.352;2024-03-08T04:21:17;1.27;;;1.20;;
41077;SDS011;26823;42.662;23.352;2024-03-08T04:23:43;1.30;;;1.20;;
41077;SDS011;26823;42.662;23.352;2024-03-08T04:26:10;1.38;;;1.27;;
41077;SDS011;26823;42.662;23.352;2024-03-08T04:28:35;4.20;;;2.90;;
41077;SDS011;26823;42.662;23.352;2024-03-08T04:31:02;5.97;;;3.50;;
41077;SDS011;26823;42.662;23.352;2024-03-08T04:33:28;3.80;;;2.10;;
41077;SDS011;26823;42.662;23.352;2024-03-08T04:35:54;3.22;;;2.65;;
41077;SDS011;26823;42.662;23.352;2024-03-08T04:38:19;5.28;;;3.63;;
41077;SDS011;26823;42.662;23.352;2024-03-08T04:40:45;3.33;;;2.10;;
41077;SDS011;26823;42.662;23.352;2024-03-08T04:43:10;2.33;;;1.70;;
41077;SDS011;26823;42.662;23.352;2024-03-08T04:45:36;2.08;;;1.48;;
41077;SDS011;26823;42.662;23.352;2024-03-08T04:48:02;1.40;;;1.30;;
41077;SDS011;26823;42.662;23.352;2024-03-08T04:50:27;2.28;;;1.67;;
41077;SDS011;26823;42.662;23.352;2024-03-08T04:52:56;2.25;;;1.90;;
41077;SDS011;26823;42.662;23.352;2024-03-08T04:55:21;2.55;;;1.80;;
41077;SDS011;26823;42.662;23.352;2024-03-08T04:57:47;1.27;;;1.17;;
41077;SDS011;26823;42.662;23.352;2024-03-08T05:00:13;5.35;;;3.47;;
41077;SDS011;26823;42.662;23.352;2024-03-08T05:02:40;2.58;;;2.22;;
41077;SDS011;26823;42.662;23.352;2024-03-08T05:05:06;4.03;;;2.90;;
41077;SDS011;26823;42.662;23.352;2024-03-08T05:07:33;3.13;;;2.05;;
41077;SDS011;26823;42.662;23.352;2024-03-08T05:09:59;2.72;;;1.77;;
41077;SDS011;26823;42.662;23.352;2024-03-08T05:12:25;2.08;;;1.83;;
41077;SDS011;26823;42.662;23.352;2024-03-08T05:14:50;3.03;;;2.13;;
41077;SDS011;26823;42.662;23.352;2024-03-08T05:17:16;6.07;;;3.58;;
41077;SDS011;26823;42.662;23.352;2024-03-08T05:19:42;2.63;;;2.40;;
41077;SDS011;26823;42.662;23.352;2024-03-08T05:22:08;2.13;;;1.92;;
41077;SDS011;26823;42.662;23.352;2024-03-08T05:24:34;4.25;;;1.70;;
41077;SDS011;26823;42.662;23.352;2024-03-08T05:26:59;2.60;;;1.85;;
41077;SDS011;26823;42.662;23.352;2024-03-08T05:29:25;2.13;;;1.77;;
41077;SDS011;26823;42.662;23.352;2024-03-08T05:31:51;3.13;;;2.20;;
41077;SDS011;26823;42.662;23.352;2024-03-08T05:34:17;4.47;;;3.20;;
41077;SDS011;26823;42.662;23.352;2024-03-08T05:36:44;2.50;;;2.30;;
41077;SDS011;26823;42.662;23.352;2024-03-08T05:39:14;3.05;;;2.75;;
41077;SDS011;26823;42.662;23.352;2024-03-08T05:41:40;4.43;;;2.78;;
41077;SDS011;26823;42.662;23.352;2024-03-08T05:44:06;4.20;;;2.50;;
41077;SDS011;26823;42.662;23.352;2024-03-08T05:46:32;4.65;;;3.22;;
41077;SDS011;26823;42.662;23.352;2024-03-08T05:48:58;3.92;;;3.50;;
41077;SDS011;26823;42.662;23.352;2024-03-08T05:51:24;6.28;;;3.28;;
41077;SDS011;26823;42.662;23.352;2024-03-08T05:53:52;5.03;;;3.60;;
41077;SDS011;26823;42.662;23.352;2024-03-08T05:56:18;6.30;;;4.07;;
41077;SDS011;26823;42.662;23.352;2024-03-08T05:58:44;6.57;;;4.00;;
41077;SDS011;26823;42.662;23.352;2024-03-08T06:01:10;5.78;;;4.47;;
41077;SDS011;26823;42.662;23.352;2024-03-08T06:03:38;8.10;;;5.75;;
41077;SDS011;26823;42.662;23.352;2024-03-08T06:06:12;10.73;;;6.20;;
41077;SDS011;26823;42.662;23.352;2024-03-08T06:08:38;9.60;;;6.22;;
41077;SDS011;26823;42.662;23.352;2024-03-08T06:11:04;8.88;;;6.07;;
41077;SDS011;26823;42.662;23.352;2024-03-08T06:13:31;10.80;;;6.15;;
41077;SDS011;26823;42.662;23.352;2024-03-08T06:15:57;7.55;;;5.13;;
41077;SDS011;26823;42.662;23.352;2024-03-08T06:18:22;8.75;;;6.38;;
41077;SDS011;26823;42.662;23.352;2024-03-08T06:20:48;11.32;;;6.88;;
41077;SDS011;26823;42.662;23.352;2024-03-08T06:23:13;9.55;;;6.75;;
41077;SDS011;26823;42.662;23.352;2024-03-08T06:25:45;10.27;;;6.15;;
41077;SDS011;26823;42.662;23.352;2024-03-08T06:28:11;9.70;;;6.82;;
41077;SDS011;26823;42.662;23.352;2024-03-08T06:30:36;10.13;;;6.75;;
41077;SDS011;26823;42.662;23.352;2024-03-08T06:33:02;13.00;;;6.43;;
41077;SDS011;26823;42.662;23.352;2024-03-08T06:35:28;10.10;;;6.03;;
41077;SDS011;26823;42.662;23.352;2024-03-08T06:37:53;9.85;;;6.15;;
41077;SDS011;26823;42.662;23.352;2024-03-08T06:40:19;8.57;;;6.07;;
41077;SDS011;26823;42.662;23.352;2024-03-08T06:42:44;9.90;;;6.05;;
41077;SDS011;26823;42.662;23.352;2024-03-08T06:45:10;9.88;;;6.53;;
41077;SDS011;26823;42.662;23.352;2024-03-08T06:47:37;8.95;;;5.38;;
41077;SDS011;26823;42.662;23.352;2024-03-08T06:52:49;7.75;;;4.07;;
41077;SDS011;26823;42.662;23.352;2024-03-08T06:55:27;7.75;;;5.28;;
41077;SDS011;26823;42.662;23.352;2024-03-08T06:57:54;7.75;;;5.35;;
41077;SDS011;26823;42.662;23.352;2024-03-08T07:00:19;9.30;;;5.50;;
41077;SDS011;26823;42.662;23.352;2024-03-08T07:02:46;7.03;;;4.07;;
41077;SDS011;26823;42.662;23.352;2024-03-08T07:05:14;4.85;;;3.55;;
41077;SDS011;26823;42.662;23.352;2024-03-08T07:07:39;4.85;;;3.63;;
41077;SDS011;26823;42.662;23.352;2024-03-08T07:10:06;4.68;;;4.05;;
41077;SDS011;26823;42.662;23.352;2024-03-08T07:12:36;4.10;;;3.38;;
41077;SDS011;26823;42.662;23.352;2024-03-08T07:15:03;6.22;;;3.97;;
41077;SDS011;26823;42.662;23.352;2024-03-08T07:17:30;4.55;;;4.03;;
41077;SDS011;26823;42.662;23.352;2024-03-08T07:20:02;4.68;;;3.47;;
41077;SDS011;26823;42.662;23.352;2024-03-08T07:22:33;6.23;;;4.03;;
41077;SDS011;26823;42.662;23.352;2024-03-08T07:24:58;5.97;;;4.22;;
41077;SDS011;26823;42.662;23.352;2024-03-08T07:27:32;4.82;;;3.65;;
41077;SDS011;26823;42.662;23.352;2024-03-08T07:30:02;3.95;;;3.55;;
41077;SDS011;26823;42.662;23.352;2024-03-08T07:32:28;5.40;;;4.07;;
41077;SDS011;26823;42.662;23.352;2024-03-08T07:34:57;5.30;;;3.85;;
41077;SDS011;26823;42.662;23.352;2024-03-08T07:37:26;5.93;;;4.63;;
41077;SDS011;26823;42.662;23.352;2024-03-08T07:40:00;6.95;;;4.88;;
41077;SDS011;26823;42.662;23.352;2024-03-08T07:42:26;7.47;;;5.00;;
41077;SDS011;26823;42.662;23.352;2024-03-08T07:44:51;9.68;;;6.10;;
41077;SDS011;26823;42.662;23.352;2024-03-08T07:47:17;6.53;;;4.97;;
41077;SDS011;26823;42.662;23.352;2024-03-08T07:49:43;7.32;;;4.70;;
41077;SDS011;26823;42.662;23.352;2024-03-08T07:52:09;8.38;;;5.07;;
41077;SDS011;26823;42.662;23.352;2024-03-08T07:54:34;5.63;;;4.22;;
41077;SDS011;26823;42.662;23.352;2024-03-08T07:57:00;5.97;;;4.28;;
41077;SDS011;26823;42.662;23.352;2024-03-08T07:59:28;7.45;;;4.57;;
41077;SDS011;26823;42.662;23.352;2024-03-08T08:01:54;9.48;;;4.90;;
41077;SDS011;26823;42.662;23.352;2024-03-08T08:04:19;7.40;;;4.72;;
41077;SDS011;26823;42.662;23.352;2024-03-08T08:06:49;9.27;;;5.97;;
41077;SDS011;26823;42.662;23.352;2024-03-08T08:09:16;6.53;;;4.32;;
41077;SDS011;26823;42.662;23.352;2024-03-08T08:11:47;6.55;;;4.25;;
41077;SDS011;26823;42.662;23.352;2024-03-08T08:14:12;4.38;;;3.28;;
41077;SDS011;26823;42.662;23.352;2024-03-08T08:16:38;5.95;;;4.53;;
41077;SDS011;26823;42.662;23.352;2024-03-08T08:19:06;6.95;;;4.20;;
41077;SDS011;26823;42.662;23.352;2024-03-08T08:21:35;6.15;;;4.25;;
41077;SDS011;26823;42.662;23.352;2024-03-08T08:24:02;5.45;;;3.90;;
41077;SDS011;26823;42.662;23.352;2024-03-08T08:26:30;7.20;;;3.60;;
41077;SDS011;26823;42.662;23.352;2024-03-08T08:28:55;7.75;;;4.35;;
41077;SDS011;26823;42.662;23.352;2024-03-08T08:31:21;6.32;;;4.53;;
41077;SDS011;26823;42.662;23.352;2024-03-08T08:33:47;6.95;;;4.18;;
41077;SDS011;26823;42.662;23.352;2024-03-08T08:36:14;4.80;;;3.85;;
41077;SDS011;26823;42.662;23.352;2024-03-08T08:38:39;6.78;;;3.83;;
41077;SDS011;26823;42.662;23.352;2024-03-08T08:41:05;8.40;;;3.85;;
41077;SDS011;26823;42.662;23.352;2024-03-08T08:43:31;8.60;;;4.10;;
41077;SDS011;26823;42.662;23.352;2024-03-08T08:45:58;6.75;;;4.43;;
41077;SDS011;26823;42.662;23.352;2024-03-08T08:48:24;5.90;;;3.58;;
41077;SDS011;26823;42.662;23.352;2024-03-08T08:50:50;4.72;;;3.40;;
41077;SDS011;26823;42.662;23.352;2024-03-08T08:53:17;4.18;;;3.17;;
41077;SDS011;26823;42.662;23.352;2024-03-08T08:55:43;4.18;;;2.85;;
41077;SDS011;26823;42.662;23.352;2024-03-08T08:58:10;5.07;;;3.97;;
41077;SDS011;26823;42.662;23.352;2024-03-08T09:00:36;4.70;;;3.35;;
41077;SDS011;26823;42.662;23.352;2024-03-08T09:03:02;3.67;;;3.30;;
41077;SDS011;26823;42.662;23.352;2024-03-08T09:05:27;4.97;;;3.35;;
41077;SDS011;26823;42.662;23.352;2024-03-08T09:07:53;3.38;;;3.05;;
41077;SDS011;26823;42.662;23.352;2024-03-08T09:10:19;3.42;;;2.67;;
41077;SDS011;26823;42.662;23.352;2024-03-08T09:12:46;5.38;;;3.42;;
41077;SDS011;26823;42.662;23.352;2024-03-08T09:15:12;4.68;;;3.42;;
41077;SDS011;26823;42.662;23.352;2024-03-08T09:17:38;4.10;;;3.22;;
41077;SDS011;26823;42.662;23.352;2024-03-08T09:20:08;3.38;;;2.80;;
41077;SDS011;26823;42.662;23.352;2024-03-08T09:22:35;3.33;;;2.88;;
41077;SDS011;26823;42.662;23.352;2024-03-08T09:25:01;3.42;;;2.78;;
41077;SDS011;26823;42.662;23.352;2024-03-08T09:27:30;4.85;;;2.72;;
41077;SDS011;26823;42.662;23.352;2024-03-08T09:29:55;3.92;;;3.08;;
41077;SDS011;26823;42.662;23.352;2024-03-08T09:32:21;4.70;;;2.70;;
41077;SDS011;26823;42.662;23.352;2024-03-08T09:34:47;5.32;;;2.60;;
41077;SDS011;26823;42.662;23.352;2024-03-08T09:37:13;6.45;;;4.47;;
41077;SDS011;26823;42.662;23.352;2024-03-08T09:39:39;4.38;;;3.45;;
41077;SDS011;26823;42.662;23.352;2024-03-08T09:42:04;3.53;;;2.92;;
41077;SDS011;26823;42.662;23.352;2024-03-08T09:44:30;3.83;;;2.50;;
41077;SDS011;26823;42.662;23.352;2024-03-08T09:46:57;5.20;;;3.20;;
41077;SDS011;26823;42.662;23.352;2024-03-08T09:49:24;6.10;;;4.25;;
41077;SDS011;26823;42.662;23.352;2024-03-08T09:51:49;4.90;;;2.90;;
41077;SDS011;26823;42.662;23.352;2024-03-08T09:54:16;5.10;;;3.10;;
41077;SDS011;26823;42.662;23.352;2024-03-08T09:56:42;6.28;;;2.45;;
41077;SDS011;26823;42.662;23.352;2024-03-08T09:59:09;3.88;;;2.38;;
41077;SDS011;26823;42.662;23.352;2024-03-08T10:01:54;3.08;;;2.38;;
41077;SDS011;26823;42.662;23.352;2024-03-08T10:04:24;2.63;;;2.42;;
41077;SDS011;26823;42.662;23.352;2024-03-08T10:06:50;4.43;;;2.58;;
41077;SDS011;26823;42.662;23.352;2024-03-08T10:09:17;2.45;;;2.10;;
41077;SDS011;26823;42.662;23.352;2024-03-08T10:11:42;2.10;;;1.90;;
41077;SDS011;26823;42.662;23.352;2024-03-08T10:14:08;2.88;;;2.38;;
41077;SDS011;26823;42.662;23.352;2024-03-08T10:16:36;2.70;;;2.20;;
41077;SDS011;26823;42.662;23.352;2024-03-08T10:19:06;5.85;;;2.58;;
41077;SDS011;26823;42.662;23.352;2024-03-08T10:21:33;3.45;;;2.28;;
41077;SDS011;26823;42.662;23.352;2024-03-08T10:23:58;3.05;;;1.80;;
41077;SDS011;26823;42.662;23.352;2024-03-08T10:26:24;2.28;;;1.60;;
41077;SDS011;26823;42.662;23.352;2024-03-08T10:28:51;2.00;;;1.80;;
41077;SDS011;26823;42.662;23.352;2024-03-08T10:31:18;2.50;;;1.77;;
41077;SDS011;26823;42.662;23.352;2024-03-08T10:33:44;1.88;;;1.75;;
41077;SDS011;26823;42.662;23.352;2024-03-08T10:36:11;3.25;;;1.75;;
41077;SDS011;26823;42.662;23.352;2024-03-08T10:38:39;5.10;;;2.33;;
41077;SDS011;26823;42.662;23.352;2024-03-08T10:41:07;1.92;;;1.65;;
41077;SDS011;26823;42.662;23.352;2024-03-08T10:43:59;1.70;;;1.60;;
41077;SDS011;26823;42.662;23.352;2024-03-08T10:49:32;3.10;;;1.70;;
41077;SDS011;26823;42.662;23.352;2024-03-08T10:52:10;2.08;;;1.73;;
41077;SDS011;26823;42.662;23.352;2024-03-08T10:54:38;5.68;;;2.47;;
41077;SDS011;26823;42.662;23.352;2024-03-08T10:57:06;2.28;;;2.03;;
41077;SDS011;26823;42.662;23.352;2024-03-08T10:59:34;5.28;;;2.53;;
41077;SDS011;26823;42.662;23.352;2024-03-08T11:02:00;3.67;;;2.10;;
41077;SDS011;26823;42.662;23.352;2024-03-08T11:04:26;1.90;;;1.80;;
41077;SDS011;26823;42.662;23.352;2024-03-08T11:06:54;1.45;;;1.35;;
41077;SDS011;26823;42.662;23.352;2024-03-08T11:09:32;2.13;;;1.92;;
41077;SDS011;26823;42.662;23.352;2024-03-08T11:12:19;4.05;;;1.63;;
41077;SDS011;26823;42.662;23.352;2024-03-08T11:15:00;2.25;;;2.05;;
41077;SDS011;26823;42.662;23.352;2024-03-08T11:19:56;2.22;;;2.03;;
41077;SDS011;26823;42.662;23.352;2024-03-08T11:22:29;1.65;;;1.55;;
41077;SDS011;26823;42.662;23.352;2024-03-08T11:25:04;1.60;;;1.50;;
41077;SDS011;26823;42.662;23.352;2024-03-08T11:27:35;1.67;;;1.35;;
41077;SDS011;26823;42.662;23.352;2024-03-08T11:30:05;2.08;;;1.70;;
41077;SDS011;26823;42.662;23.352;2024-03-08T11:32:36;7.13;;;4.10;;
41077;SDS011;26823;42.662;23.352;2024-03-08T11:35:05;4.65;;;3.35;;
41077;SDS011;26823;42.662;23.352;2024-03-08T11:37:33;3.47;;;2.10;;
41077;SDS011;26823;42.662;23.352;2024-03-08T11:40:05;2.50;;;1.70;;
41077;SDS011;26823;42.662;23.352;2024-03-08T11:42:39;3.28;;;1.65;;
41077;SDS011;26823;42.662;23.352;2024-03-08T11:45:07;1.70;;;1.58;;
41077;SDS011;26823;42.662;23.352;2024-03-08T11:47:36;1.45;;;1.35;;
41077;SDS011;26823;42.662;23.352;2024-03-08T11:50:05;1.30;;;1.20;;
41077;SDS011;26823;42.662;23.352;2024-03-08T11:52:35;4.38;;;2.65;;
41077;SDS011;26823;42.662;23.352;2024-03-08T11:55:01;1.70;;;1.60;;
41077;SDS011;26823;42.662;23.352;2024-03-08T11:57:28;2.95;;;1.60;;
41077;SDS011;26823;42.662;23.352;2024-03-08T11:59:55;1.80;;;1.70;;
41077;SDS011;26823;42.662;23.352;2024-03-08T12:02:24;1.58;;;1.42;;
41077;SDS011;26823;42.662;23.352;2024-03-08T12:04:56;1.10;;;1.08;;
41077;SDS011;26823;42.662;23.352;2024-03-08T12:07:24;1.55;;;1.45;;
41077;SDS011;26823;42.662;23.352;2024-03-08T12:12:43;2.30;;;1.80;;
41077;SDS011;26823;42.662;23.352;2024-03-08T12:15:12;4.47;;;2.10;;
41077;SDS011;26823;42.662;23.352;2024-03-08T12:17:40;3.63;;;2.70;;
41077;SDS011;26823;42.662;23.352;2024-03-08T12:20:15;1.73;;;1.55;;
41077;SDS011;26823;42.662;23.352;2024-03-08T12:22:43;2.13;;;1.70;;
41077;SDS011;26823;42.662;23.352;2024-03-08T12:25:10;1.60;;;1.50;;
41077;SDS011;26823;42.662;23.352;2024-03-08T12:27:38;2.25;;;1.88;;
41077;SDS011;26823;42.662;23.352;2024-03-08T12:30:17;3.83;;;1.40;;
41077;SDS011;26823;42.662;23.352;2024-03-08T12:32:47;1.33;;;1.20;;
41077;SDS011;26823;42.662;23.352;2024-03-08T12:35:25;1.30;;;1.20;;
41077;SDS011;26823;42.662;23.352;2024-03-08T12:37:53;1.45;;;1.35;;
41077;SDS011;26823;42.662;23.352;2024-03-08T12:40:29;3.70;;;1.77;;
41077;SDS011;26823;42.662;23.352;2024-03-08T12:43:00;2.92;;;1.92;;
41077;SDS011;26823;42.662;23.352;2024-03-08T12:45:26;3.15;;;1.40;;
41077;SDS011;26823;42.662;23.352;2024-03-08T12:47:52;2.03;;;1.85;;
41077;SDS011;26823;42.662;23.352;2024-03-08T12:50:21;2.15;;;1.30;;
41077;SDS011;26823;42.662;23.352;2024-03-08T12:52:48;2.67;;;1.38;;
41077;SDS011;26823;42.662;23.352;2024-03-08T12:55:14;2.58;;;1.33;;
41077;SDS011;26823;42.662;23.352;2024-03-08T12:57:41;1.75;;;1.40;;
41077;SDS011;26823;42.662;23.352;2024-03-08T13:00:07;2.50;;;1.20;;
41077;SDS011;26823;42.662;23.352;2024-03-08T13:02:38;1.35;;;1.25;;
41077;SDS011;26823;42.662;23.352;2024-03-08T13:05:04;3.15;;;1.30;;
41077;SDS011;26823;42.662;23.352;2024-03-08T13:07:31;2.05;;;1.85;;
41077;SDS011;26823;42.662;23.352;2024-03-08T13:09:56;2.38;;;1.60;;
41077;SDS011;26823;42.662;23.352;2024-03-08T13:12:24;1.20;;;1.10;;
41077;SDS011;26823;42.662;23.352;2024-03-08T13:14:50;3.03;;;1.48;;
41077;SDS011;26823;42.662;23.352;2024-03-08T13:17:16;2.63;;;1.40;;
41077;SDS011;26823;42.662;23.352;2024-03-08T13:19:46;1.13;;;1.08;;
41077;SDS011;26823;42.662;23.352;2024-03-08T13:22:11;1.58;;;1.42;;
41077;SDS011;26823;42.662;23.352;2024-03-08T13:24:39;1.40;;;1.30;;
41077;SDS011;26823;42.662;23.352;2024-03-08T13:27:07;2.20;;;1.20;;
41077;SDS011;26823;42.662;23.352;2024-03-08T13:29:47;1.33;;;1.23;;
41077;SDS011;26823;42.662;23.352;2024-03-08T13:32:15;2.03;;;1.25;;
41077;SDS011;26823;42.662;23.352;2024-03-08T13:34:42;1.27;;;1.17;;
41077;SDS011;26823;42.662;23.352;2024-03-08T13:37:09;1.35;;;1.20;;
41077;SDS011;26823;42.662;23.352;2024-03-08T13:39:35;4.68;;;1.55;;
41077;SDS011;26823;42.662;23.352;2024-03-08T13:42:08;1.35;;;1.25;;
41077;SDS011;26823;42.662;23.352;2024-03-08T13:44:36;4.40;;;1.33;;
41077;SDS011;26823;42.662;23.352;2024-03-08T13:47:03;1.27;;;1.17;;
41077;SDS011;26823;42.662;23.352;2024-03-08T13:49:32;1.30;;;1.20;;
41077;SDS011;26823;42.662;23.352;2024-03-08T13:51:59;2.03;;;1.23;;
41077;SDS011;26823;42.662;23.352;2024-03-08T13:54:24;1.58;;;1.30;;
41077;SDS011;26823;42.662;23.352;2024-03-08T13:56:52;1.98;;;1.52;;
41077;SDS011;26823;42.662;23.352;2024-03-08T13:59:19;1.98;;;1.48;;
41077;SDS011;26823;42.662;23.352;2024-03-08T14:01:47;2.15;;;1.23;;
41077;SDS011;26823;42.662;23.352;2024-03-08T14:04:14;3.15;;;1.35;;
41077;SDS011;26823;42.662;23.352;2024-03-08T14:06:40;1.60;;;1.50;;
41077;SDS011;26823;42.662;23.352;2024-03-08T14:09:05;2.15;;;1.63;;
41077;SDS011;26823;42.662;23.352;2024-03-08T14:11:33;2.08;;;1.40;;
41077;SDS011;26823;42.662;23.352;2024-03-08T14:13:58;2.10;;;1.50;;
41077;SDS011;26823;42.662;23.352;2024-03-08T14:16:23;2.78;;;2.20;;
41077;SDS011;26823;42.662;23.352;2024-03-08T14:18:50;6.82;;;2.05;;
41077;SDS011;26823;42.662;23.352;2024-03-08T14:21:15;2.72;;;1.70;;
41077;SDS011;26823;42.662;23.352;2024-03-08T14:23:42;1.85;;;1.50;;
41077;SDS011;26823;42.662;23.352;2024-03-08T14:26:08;2.42;;;1.77;;
41077;SDS011;26823;42.662;23.352;2024-03-08T14:28:35;6.53;;;2.50;;
41077;SDS011;26823;42.662;23.352;2024-03-08T14:31:04;4.55;;;1.95;;
41077;SDS011;26823;42.662;23.352;2024-03-08T14:33:36;6.88;;;1.95;;
41077;SDS011;26823;42.662;23.352;2024-03-08T14:36:02;4.13;;;1.77;;
41077;SDS011;26823;42.662;23.352;2024-03-08T14:38:30;2.55;;;2.08;;
41077;SDS011;26823;42.662;23.352;2024-03-08T14:40:55;2.30;;;2.10;;
41077;SDS011;26823;42.662;23.352;2024-03-08T14:43:20;2.20;;;2.00;;
41077;SDS011;26823;42.662;23.352;2024-03-08T14:45:47;2.97;;;2.33;;